EPLBEPRZ

Guest
Details From EPLB - Lublin
To EPRZ - JASIONKA
Flight Number -
Tags generated
Created
Modified
Stats Distance 74 nm / 137 km
Max Altitude 500 ft / 152 m
Waypoints 3
Social Downloads 1
Likes 0
Share VATSIM

Download

Looking for another format? Having issues loading an existing format? Contact us
Advertisement - Login to hide

Notes

Basic altitude profile: - Ascent Rate: 1200ft/min - Ascent Speed: 120kts - Cruise Altitude: 9000ft - Cruise Speed: 160kts - Descent Rate: 1500ft/min - Descent Speed: 140kts Options: - Use NATs: yes - Use PACOTS: no - Use low airways: yes - Use high airways: no

Route

EPLB XERUK EPRZ

ID Type Via Altitude Latitude Longitude Leg Dist Tot Dist Heading (true) Name
O EPLB APT - 0 ft / 0 m 51.23634˚ 22.70251˚ - 0 nm - Lublin
XERUK FIX - 500 ft / 152 m 50.10972˚ 22.09889˚ 71 nm 71 nm 199° / 199° -
O EPRZ APT - 0 ft / 0 m 50.10761˚ 22.03610˚ 2 nm 73 nm 267° / 267° JASIONKA

Altitude Profile

Advertisement - Login to hide

EPLB

Details ICAO EPLB (LUZ)
Name Lublin
Region Poland
Timezone Europe/Warsaw (UTC+1.0)
Stats Elevation 633 ft / 193 m (AMSL)
Location 51.236345° 22.702508°
Runways 2
Magnetic Variation 6.072° E

METAR

EPLB 122330Z 28013KT CAVOK 05/M01 Q1013

Decode

TAF

Not found

Departure Runways

ID Width Length Bearing (true) Bearing (mag) Surface Threshold Offset Overrun Length
06 222 ft / 68 m 3,445 ft / 1,050 m 62.25° 56.18° Grass 0 ft / 0 m 0 ft / 0 m
07 148 ft / 45 m 8,277 ft / 2,523 m 77.06° 70.99° Asphalt 72 ft / 22 m 0 ft / 0 m
24 222 ft / 68 m 3,445 ft / 1,050 m 242.26° 236.19° Grass 0 ft / 0 m 0 ft / 0 m
25 148 ft / 45 m 8,277 ft / 2,523 m 257.09° 251.02° Asphalt 66 ft / 20 m 0 ft / 0 m

EPRZ

Details ICAO EPRZ (RZE)
Name JASIONKA
Region Poland
Timezone Europe/Warsaw (UTC+1.0)
Stats Elevation 675 ft / 206 m (AMSL)
Location 50.107614° 22.036096°
Runways 2
Magnetic Variation 5.724° E

METAR

EPRZ 122330Z 29008KT 9999 FEW039 SCT044 05/M02 Q1014

Decode

TAF

TAF EPRZ 122330Z 1300/1324 26010KT 9999 BKN030 TEMPO 1300/1309 4000 RA BKN014 PROB30 TEMPO 1300/1309 2000 RASN BKN007 BKN014 BECMG 1315/1317 18010KT

Decode

Destination Runways

ID Width Length Bearing (true) Bearing (mag) Surface Threshold Offset Overrun Length
08 1,050 ft / 320 m 2,709 ft / 826 m 80.74° 75.02° Grass 0 ft / 0 m 0 ft / 0 m
09 148 ft / 45 m 10,469 ft / 3,191 m 91.16° 85.44° Concrete 0 ft / 0 m 0 ft / 0 m
26 1,050 ft / 320 m 2,709 ft / 826 m 260.74° 255.02° Grass 0 ft / 0 m 0 ft / 0 m
27 148 ft / 45 m 10,469 ft / 3,191 m 271.20° 265.48° Concrete 2,297 ft / 700 m 0 ft / 0 m

Approach Navaids

Runway Type Ident Frequency Range Bearing (true) Bearing (mag) Slope Elevation
27 Localiser RZW 110.30 MHz 18 nm / 33 km 271.15° 265.43° - 675 ft / 206 m (AMSL)
27 Glidescope RZW 110.30 MHz 10 nm / 19 km 271.18° 265.46° 2.90° 675 ft / 206 m (AMSL)
27 DME RZW 110.30 MHz 18 nm / 33 km - - - 787 ft / 240 m (AMSL)

Popular Alternatives